Time,TemperatureF,DewpointF,PressureIn,WindDirection,WindDirectionDegrees,WindSpeedMPH,WindSpeedGustMPH,Humidity,HourlyPrecipIn,Conditions,Clouds,dailyrainin,SoftwareType,DateUTC
2013-09-20 00:22:00,60.0,56.0,29.58,SE,130,14.0,18.0,87,0.00,,,0.00,,2013-09-20 07:22:00,
2013-09-20 00:32:00,60.0,56.0,29.58,SE,130,14.0,18.0,87,0.00,,,0.00,,2013-09-20 07:32:00,
2013-09-20 00:53:00,59.0,55.0,29.58,SE,133,13.0,15.0,88,0.00,,,0.00,,2013-09-20 07:53:00,
2013-09-20 01:21:00,59.0,55.0,29.59,SE,124,14.0,18.0,88,0.00,,,0.00,,2013-09-20 08:21:00,
2013-09-20 01:32:00,59.0,55.0,29.59,SE,124,14.0,18.0,88,0.00,,,0.00,,2013-09-20 08:32:00,
2013-09-20 01:52:00,60.0,57.0,29.59,SE,125,13.0,14.0,89,0.00,,,0.00,,2013-09-20 08:52:00,
2013-09-20 02:22:00,60.0,56.0,29.59,SE,130,10.0,13.0,86,0.00,,,0.00,,2013-09-20 09:22:00,
2013-09-20 02:33:00,60.0,56.0,29.59,SE,130,10.0,13.0,86,0.00,,,0.00,,2013-09-20 09:33:00,
2013-09-20 02:53:00,61.0,56.0,29.59,ESE,119,10.0,12.0,83,0.00,,,0.00,,2013-09-20 09:53:00,
2013-09-20 03:23:00,61.0,55.0,29.58,ESE,115,10.0,12.0,82,0.00,,,0.00,,2013-09-20 10:23:00,
2013-09-20 03:32:00,61.0,55.0,29.58,ESE,115,10.0,12.0,82,0.00,,,0.00,,2013-09-20 10:32:00,
2013-09-20 03:53:00,57.0,54.0,29.58,ESE,122,1.0,6.0,91,0.00,,,0.00,,2013-09-20 10:53:00,
2013-09-20 04:23:00,61.0,56.0,29.57,East,93,7.0,10.0,85,0.00,,,0.00,,2013-09-20 11:23:00,
2013-09-20 04:33:00,61.0,56.0,29.57,East,93,7.0,10.0,85,0.00,,,0.00,,2013-09-20 11:33:00,
2013-09-20 04:52:00,62.0,57.0,29.57,ENE,60,7.0,9.0,83,0.00,,,0.00,,2013-09-20 11:52:00,
2013-09-20 05:22:00,62.0,54.0,29.57,ENE,66,8.0,9.0,76,0.00,,,0.00,,2013-09-20 12:22:00,
2013-09-20 05:32:00,62.0,54.0,29.57,ENE,66,8.0,9.0,76,0.00,,,0.00,,2013-09-20 12:32:00,
2013-09-20 05:52:00,61.0,54.0,29.57,ENE,64,7.0,9.0,79,0.00,,,0.00,,2013-09-20 12:52:00,
2013-09-20 06:21:00,64.0,51.0,29.59,NE,43,6.0,8.0,63,0.00,,,0.00,,2013-09-20 13:21:00,
2013-09-20 06:52:00,64.0,54.0,29.59,NE,54,6.0,7.0,69,0.00,,,0.00,,2013-09-20 13:52:00,
2013-09-20 07:21:00,57.0,54.0,29.59,East,89,4.0,7.0,89,0.00,,,0.00,,2013-09-20 14:21:00,
2013-09-20 07:32:00,57.0,54.0,29.59,East,89,4.0,7.0,89,0.00,,,0.00,,2013-09-20 14:32:00,
2013-09-20 07:52:00,56.0,-99.9,29.60,SE,127,6.0,9.0,-999,0.00,,,0.00,,2013-09-20 14:52:00,
2013-09-20 08:21:00,56.0,54.0,29.61,SE,125,3.0,5.0,94,0.00,,,0.00,,2013-09-20 15:21:00,
2013-09-20 08:54:00,56.0,54.0,29.61,ESE,123,6.0,9.0,94,0.00,,,0.00,,2013-09-20 15:54:00,
2013-09-20 09:23:00,56.0,55.0,29.62,SE,130,7.0,10.0,95,0.00,,,0.00,,2013-09-20 16:23:00,
2013-09-20 09:53:00,56.0,55.0,29.63,SE,135,2.0,5.0,95,0.00,,,0.00,,2013-09-20 16:53:00,
2013-09-20 10:23:00,56.0,55.0,29.65,SE,141,4.0,6.0,95,0.00,,,0.00,,2013-09-20 17:23:00,
2013-09-20 10:34:00,56.0,55.0,29.65,SE,141,4.0,6.0,95,0.00,,,0.00,,2013-09-20 17:34:00,
2013-09-20 10:53:00,57.0,56.0,29.66,North,0,0.0,3.0,95,0.00,,,0.00,,2013-09-20 17:53:00,
2013-09-20 11:02:00,57.0,56.0,29.66,North,0,0.0,3.0,95,0.00,,,0.00,,2013-09-20 18:02:00,
2013-09-20 11:22:00,57.0,56.0,29.66,North,0,0.0,1.0,96,0.00,,,0.00,,2013-09-20 18:22:00,
2013-09-20 11:52:00,57.0,56.0,29.66,North,0,0.0,2.0,96,0.00,,,0.00,,2013-09-20 18:52:00,
2013-09-20 12:22:00,57.0,56.0,29.66,North,0,0.0,5.0,96,0.00,,,0.00,,2013-09-20 19:22:00,
2013-09-20 12:32:00,57.0,56.0,29.66,North,0,0.0,5.0,96,0.00,,,0.00,,2013-09-20 19:32:00,
2013-09-20 12:52:00,58.0,57.0,29.66,North,0,0.0,4.0,96,0.00,,,0.00,,2013-09-20 19:52:00,
2013-09-20 13:22:00,58.0,57.0,29.65,SE,146,1.0,6.0,96,0.00,,,0.00,,2013-09-20 20:22:00,
2013-09-20 13:32:00,58.0,57.0,29.65,SE,146,1.0,6.0,96,0.00,,,0.00,,2013-09-20 20:32:00,
2013-09-20 13:52:00,59.0,58.0,29.65,South,176,1.0,6.0,96,0.00,,,0.00,,2013-09-20 20:52:00,
2013-09-20 14:21:00,60.0,58.0,29.65,SSE,165,5.0,12.0,93,0.00,,,0.00,,2013-09-20 21:21:00,
2013-09-20 14:54:00,61.0,58.0,29.65,South,170,6.0,11.0,91,0.00,,,0.00,,2013-09-20 21:54:00,
2013-09-20 15:23:00,60.0,58.0,29.65,South,172,7.0,15.0,92,0.00,,,0.00,,2013-09-20 22:23:00,
2013-09-20 15:33:00,60.0,58.0,29.65,South,172,7.0,15.0,92,0.00,,,0.00,,2013-09-20 22:33:00,
2013-09-20 15:53:00,59.0,57.0,29.65,SSE,163,6.0,11.0,94,0.00,,,0.00,,2013-09-20 22:53:00,
2013-09-20 16:22:00,59.0,57.0,29.64,South,178,2.0,7.0,93,0.00,,,0.00,,2013-09-20 23:22:00,
2013-09-20 16:53:00,61.0,59.0,29.64,North,0,0.0,4.0,92,0.00,,,0.00,,2013-09-20 23:53:00,
2013-09-20 17:21:00,63.0,59.0,29.63,North,0,0.0,1.0,86,0.00,,,0.00,,2013-09-21 00:21:00,
2013-09-20 17:32:00,63.0,59.0,29.63,North,0,0.0,1.0,86,0.00,,,0.00,,2013-09-21 00:32:00,
2013-09-20 17:41:00,63.0,59.0,29.63,North,0,0.0,1.0,86,0.00,,,0.00,,2013-09-21 00:41:00,
2013-09-20 17:52:00,62.0,57.0,29.63,North,0,0.0,4.0,85,0.00,,,0.00,,2013-09-21 00:52:00,
2013-09-20 18:22:00,60.0,57.0,29.63,North,0,0.0,7.0,91,0.00,,,0.00,,2013-09-21 01:22:00,
2013-09-20 18:32:00,60.0,57.0,29.63,North,0,0.0,7.0,91,0.00,,,0.00,,2013-09-21 01:32:00,
2013-09-20 18:52:00,61.0,57.0,29.64,North,0,0.0,0.0,88,0.00,,,0.00,,2013-09-21 01:52:00,
2013-09-20 19:22:00,58.0,56.0,29.64,SW,227,3.0,6.0,92,0.00,,,0.00,,2013-09-21 02:22:00,
2013-09-20 19:32:00,58.0,56.0,29.64,SW,227,3.0,6.0,92,0.00,,,0.00,,2013-09-21 02:32:00,
2013-09-20 19:52:00,58.0,56.0,29.65,West,279,6.0,9.0,93,0.00,,,0.00,,2013-09-21 02:52:00,
2013-09-20 20:22:00,57.0,55.0,29.66,North,0,0.0,8.0,94,0.00,,,0.00,,2013-09-21 03:22:00,
2013-09-20 20:34:00,57.0,55.0,29.66,North,0,0.0,8.0,94,0.00,,,0.00,,2013-09-21 03:34:00,
2013-09-20 20:54:00,57.0,55.0,29.66,North,0,0.0,0.0,94,0.00,,,0.00,,2013-09-21 03:54:00,
2013-09-20 21:24:00,56.0,55.0,29.68,North,0,0.0,4.0,95,0.00,,,0.00,,2013-09-21 04:24:00,
2013-09-20 21:33:00,56.0,55.0,29.68,North,0,0.0,4.0,95,0.00,,,0.00,,2013-09-21 04:33:00,
2013-09-20 21:54:00,56.0,55.0,29.68,North,0,0.0,0.0,95,0.00,,,0.00,,2013-09-21 04:54:00,
2013-09-20 22:23:00,57.0,56.0,29.68,North,0,0.0,0.0,96,0.00,,,0.00,,2013-09-21 05:23:00,
2013-09-20 22:34:00,57.0,56.0,29.68,North,0,0.0,0.0,96,0.00,,,0.00,,2013-09-21 05:34:00,
2013-09-20 22:52:00,57.0,56.0,29.67,North,0,0.0,0.0,96,0.00,,,0.00,,2013-09-21 05:52:00,
2013-09-20 23:22:00,56.0,55.0,29.67,North,0,0.0,0.0,96,0.00,,,0.00,,2013-09-21 06:22:00,
2013-09-20 23:42:00,56.0,55.0,29.67,North,0,0.0,0.0,96,0.00,,,0.00,,2013-09-21 06:42:00,
2013-09-20 23:52:00,56.0,55.0,29.68,North,0,0.0,0.0,96,0.00,,,0.00,,2013-09-21 06:52:00,